Time;durP1;ratioP1;P1;durP2;ratioP2;P2;SDS_P1;SDS_P2;PMS_P1;PMS_P2;Temp;Humidity;BMP_temperature;BMP_pressure;BME280_temperature;BME280_humidity;BME280_pressure;Samples;Min_cycle;Max_cycle;Signal;HPM_P1;HPM_P2
2024/01/09 00:00:14;;;;;;;54.40;23.40;;;;;;;-10.51;78.47;102670.64;105272;1260;69996;-49
2024/01/09 00:03:02;;;;;;;56.50;20.90;;;;;;;-10.50;78.73;102670.54;105254;1258;73755;-49
2024/01/09 00:05:31;;;;;;;59.60;21.60;;;;;;;-10.46;78.87;102672.02;105303;1261;81389;-50
2024/01/09 00:08:00;;;;;;;55.60;22.90;;;;;;;-10.48;78.75;102670.75;105250;1260;71588;-51
2024/01/09 00:10:28;;;;;;;53.20;22.00;;;;;;;-10.49;78.60;102666.73;105274;1259;70443;-49
2024/01/09 00:12:56;;;;;;;56.80;22.80;;;;;;;-10.52;78.49;102670.18;105262;1258;69987;-49
2024/01/09 00:15:25;;;;;;;56.50;22.40;;;;;;;-10.57;78.47;102670.14;105457;1259;73536;-48
2024/01/09 00:17:53;;;;;;;51.40;21.50;;;;;;;-10.56;78.62;102667.52;105327;1260;81604;-49
2024/01/09 00:20:21;;;;;;;50.70;21.70;;;;;;;-10.57;78.68;102665.94;105328;1258;71337;-49
2024/01/09 00:22:51;;;;;;;57.70;23.70;;;;;;;-10.58;78.60;102666.17;105419;1256;69970;-49
2024/01/09 00:25:19;;;;;;;56.30;22.80;;;;;;;-10.61;78.45;102667.26;105386;1258;69983;-49
2024/01/09 00:27:47;;;;;;;53.30;22.50;;;;;;;-10.66;78.32;102660.61;105260;1259;74378;-49
2024/01/09 00:30:16;;;;;;;55.90;21.80;;;;;;;-10.70;78.20;102666.63;105276;1260;81365;-49
2024/01/09 00:32:47;;;;;;;54.20;22.70;;;;;;;-10.72;78.13;102664.59;105249;1258;71848;-49
2024/01/09 00:35:17;;;;;;;60.90;24.00;;;;;;;-10.77;78.30;102667.92;105359;1257;70015;-49
2024/01/09 00:37:45;;;;;;;51.40;21.60;;;;;;;-10.83;78.02;102666.27;105290;1261;69975;-50
2024/01/09 00:40:13;;;;;;;60.00;23.00;;;;;;;-10.88;77.80;102669.16;105318;1258;73621;-50
2024/01/09 00:42:41;;;;;;;56.60;22.70;;;;;;;-10.92;78.00;102670.87;105298;1260;82097;-49
2024/01/09 00:45:10;;;;;;;54.80;23.00;;;;;;;-10.94;77.87;102676.09;105280;1258;71822;-49
2024/01/09 00:47:38;;;;;;;57.10;23.10;;;;;;;-10.97;78.13;102675.70;105331;1260;69925;-50
2024/01/09 00:50:08;;;;;;;52.20;21.50;;;;;;;-10.98;78.13;102676.79;105331;1256;69974;-50
2024/01/09 00:52:36;;;;;;;51.70;21.10;;;;;;;-11.00;77.99;102676.26;105369;1260;73256;-49
2024/01/09 00:55:04;;;;;;;54.10;21.90;;;;;;;-11.05;77.96;102677.85;105317;1259;81357;-49
2024/01/09 00:57:33;;;;;;;55.10;22.90;;;;;;;-11.10;77.77;102678.25;105353;1258;72225;-49
2024/01/09 01:00:01;;;;;;;57.20;22.70;;;;;;;-11.13;77.99;102679.89;105372;1259;70156;-50
2024/01/09 01:02:29;;;;;;;60.00;23.50;;;;;;;-11.15;77.99;102685.27;105313;1259;69995;-49
2024/01/09 01:04:57;;;;;;;59.80;24.50;;;;;;;-11.13;78.00;102684.40;105220;1257;73608;-49
2024/01/09 01:07:26;;;;;;;57.00;21.70;;;;;;;-11.13;78.03;102685.60;105172;1260;82617;-49
2024/01/09 01:09:54;;;;;;;59.10;24.10;;;;;;;-11.19;77.89;102686.09;105218;1260;72990;-50
2024/01/09 01:12:22;;;;;;;56.10;22.10;;;;;;;-11.24;77.75;102683.28;105307;1259;69999;-50
2024/01/09 01:14:50;;;;;;;55.20;23.00;;;;;;;-11.29;77.84;102689.81;105288;1258;70000;-51
2024/01/09 01:17:18;;;;;;;52.50;22.60;;;;;;;-11.33;77.94;102686.70;105293;1257;74242;-50
2024/01/09 01:19:47;;;;;;;56.40;23.10;;;;;;;-11.36;77.73;102687.94;105378;1260;81551;-49
2024/01/09 01:22:15;;;;;;;52.30;21.90;;;;;;;-11.41;77.68;102688.23;105170;1258;73205;-50
2024/01/09 01:24:43;;;;;;;54.00;22.10;;;;;;;-11.46;77.73;102687.33;105134;1260;69961;-48
2024/01/09 01:27:11;;;;;;;57.90;21.70;;;;;;;-11.48;77.96;102679.87;105232;1259;70010;-50
2024/01/09 01:29:39;;;;;;;59.10;23.10;;;;;;;-11.47;77.87;102678.23;105300;1257;74473;-49
2024/01/09 01:32:10;;;;;;;51.10;21.40;;;;;;;-11.47;78.01;102678.14;105287;1259;83070;-48
2024/01/09 01:34:38;;;;;;;52.90;22.60;;;;;;;-11.50;77.93;102681.83;105355;1256;71636;-50
2024/01/09 01:37:07;;;;;;;52.00;22.10;;;;;;;-11.52;77.76;102679.14;105277;1260;70063;-51
2024/01/09 01:39:36;;;;;;;63.00;23.70;;;;;;;-11.53;77.91;102678.73;105354;1255;70092;-48
2024/01/09 01:42:04;;;;;;;52.10;22.60;;;;;;;-11.57;77.93;102679.56;105365;1257;74197;-49
2024/01/09 01:44:33;;;;;;;59.10;22.10;;;;;;;-11.59;77.53;102679.81;105329;1257;82124;-49
2024/01/09 01:47:01;;;;;;;57.80;22.60;;;;;;;-11.62;77.72;102684.30;105378;1257;71579;-49
2024/01/09 01:49:30;;;;;;;52.70;22.10;;;;;;;-11.67;77.68;102687.14;105389;1260;69948;-49
2024/01/09 01:51:58;;;;;;;54.40;21.30;;;;;;;-11.69;77.70;102697.20;105310;1259;70112;-50
2024/01/09 01:54:28;;;;;;;57.60;22.80;;;;;;;-11.73;77.32;102699.92;105362;1259;73993;-51
2024/01/09 01:56:58;;;;;;;56.40;21.50;;;;;;;-11.74;77.67;102696.21;105390;1260;80139;-49
2024/01/09 01:59:26;;;;;;;56.30;24.40;;;;;;;-11.71;78.83;102701.14;105212;1260;71180;-48
2024/01/09 02:01:55;;;;;;;61.30;24.30;;;;;;;-11.62;79.52;102704.20;105300;1257;69919;-48
2024/01/09 02:04:23;;;;;;;59.50;23.60;;;;;;;-11.54;79.68;102704.48;105249;1258;70008;-50
2024/01/09 02:06:52;;;;;;;54.90;21.50;;;;;;;-11.46;79.65;102704.35;105358;1258;73739;-50
2024/01/09 02:09:20;;;;;;;53.20;22.70;;;;;;;-11.40;80.14;102704.48;105399;1260;81186;-48
2024/01/09 02:11:49;;;;;;;58.10;22.70;;;;;;;-11.34;80.04;102701.12;105386;1260;71900;-51
2024/01/09 02:14:18;;;;;;;54.70;23.70;;;;;;;-11.33;80.07;102699.23;105340;1260;70021;-49
2024/01/09 02:16:46;;;;;;;61.50;24.90;;;;;;;-11.32;80.09;102698.15;105216;1257;69996;-49
2024/01/09 02:19:14;;;;;;;61.60;24.70;;;;;;;-11.32;79.69;102696.97;105275;1257;73649;-50
2024/01/09 02:21:43;;;;;;;58.80;24.20;;;;;;;-11.30;79.90;102700.82;105278;1257;81873;-49
2024/01/09 02:24:11;;;;;;;71.20;29.70;;;;;;;-11.30;79.81;102706.02;105353;1258;70671;-48
2024/01/09 02:26:46;;;;;;;70.60;28.50;;;;;;;-11.30;79.69;102704.58;105410;1261;69992;-48
2024/01/09 02:29:33;;;;;;;58.20;24.00;;;;;;;-11.27;80.13;102710.91;105257;1258;69948;-49
2024/01/09 02:32:02;;;;;;;62.20;24.60;;;;;;;-11.26;79.82;102709.34;105393;1260;75127;-49
2024/01/09 02:34:33;;;;;;;65.00;25.40;;;;;;;-11.25;79.69;102714.66;105368;1257;82588;-49
2024/01/09 02:37:02;;;;;;;65.60;23.40;;;;;;;-11.26;79.59;102714.02;105323;1260;71736;-48
2024/01/09 02:39:30;;;;;;;56.40;22.40;;;;;;;-11.28;79.60;102716.84;105370;1255;69964;-48
2024/01/09 02:41:58;;;;;;;66.50;24.80;;;;;;;-11.29;79.60;102720.19;105316;1260;70000;-49
2024/01/09 02:44:26;;;;;;;61.60;23.60;;;;;;;-11.34;79.90;102719.35;105291;1258;73467;-48
2024/01/09 02:46:54;;;;;;;61.60;24.20;;;;;;;-11.35;79.86;102718.16;105226;1258;81764;-49
2024/01/09 02:49:22;;;;;;;56.40;23.40;;;;;;;-11.32;79.83;102717.66;105371;1260;72430;-49
2024/01/09 02:51:52;;;;;;;58.90;24.50;;;;;;;-11.34;79.74;102713.09;105286;1261;69921;-49
2024/01/09 02:54:20;;;;;;;55.70;22.60;;;;;;;-11.36;79.91;102716.84;105382;1259;69998;-48
2024/01/09 02:56:48;;;;;;;57.10;22.30;;;;;;;-11.34;79.82;102714.99;105347;1257;73711;-51
2024/01/09 02:59:17;;;;;;;60.40;23.70;;;;;;;-11.35;79.50;102708.52;105368;1258;81491;-50
2024/01/09 03:01:45;;;;;;;58.50;22.20;;;;;;;-11.37;79.62;102711.49;105380;1258;71689;-49
2024/01/09 03:04:13;;;;;;;60.50;23.10;;;;;;;-11.38;79.47;102706.19;105267;1257;69997;-48
2024/01/09 03:06:41;;;;;;;61.80;25.50;;;;;;;-11.36;79.69;102711.39;105303;1258;69998;-49
2024/01/09 03:09:11;;;;;;;56.80;23.30;;;;;;;-11.38;79.50;102711.40;105276;1259;73830;-48
2024/01/09 03:11:39;;;;;;;62.00;24.20;;;;;;;-11.43;79.39;102711.30;105355;1257;81842;-49
2024/01/09 03:14:08;;;;;;;67.00;24.20;;;;;;;-11.48;79.01;102707.17;105344;1257;71653;-49
2024/01/09 03:16:36;;;;;;;52.80;22.40;;;;;;;-11.50;79.31;102707.48;105301;1258;70047;-48
2024/01/09 03:19:04;;;;;;;53.10;23.30;;;;;;;-11.49;79.20;102702.02;105297;1257;69916;-49
2024/01/09 03:21:32;;;;;;;55.70;24.10;;;;;;;-11.50;79.28;102699.89;105378;1260;72289;-49
2024/01/09 03:24:00;;;;;;;62.50;23.80;;;;;;;-11.49;79.48;102706.08;105322;1260;80142;-49
2024/01/09 03:26:29;;;;;;;62.60;23.60;;;;;;;-11.48;79.87;102702.48;105384;1259;72300;-49
2024/01/09 03:28:58;;;;;;;59.90;23.40;;;;;;;-11.47;79.67;102697.52;105318;1259;70002;-49
2024/01/09 03:31:26;;;;;;;56.00;23.20;;;;;;;-11.45;79.98;102700.53;105151;1257;70027;-48
2024/01/09 03:33:55;;;;;;;53.90;22.30;;;;;;;-11.47;79.53;102701.05;105356;1257;74067;-48
2024/01/09 03:36:24;;;;;;;59.00;23.90;;;;;;;-11.50;79.17;102698.59;105338;1260;82128;-48
2024/01/09 03:38:53;;;;;;;59.50;24.80;;;;;;;-11.55;79.19;102697.31;105320;1257;71876;-47
2024/01/09 03:41:22;;;;;;;59.00;24.80;;;;;;;-11.56;79.32;102696.55;105310;1258;70047;-50
2024/01/09 03:43:50;;;;;;;62.00;24.80;;;;;;;-11.56;79.35;102700.41;105405;1256;69940;-49
2024/01/09 03:46:18;;;;;;;61.30;24.40;;;;;;;-11.57;79.47;102697.95;105315;1257;73825;-49
2024/01/09 03:48:48;;;;;;;57.60;24.60;;;;;;;-11.56;79.53;102701.07;105311;1259;81870;-49
2024/01/09 03:51:16;;;;;;;62.10;25.30;;;;;;;-11.54;79.32;102698.88;105309;1257;71948;-50
2024/01/09 03:53:44;;;;;;;62.60;24.60;;;;;;;-11.54;79.89;102696.55;105303;1259;69999;-50
2024/01/09 03:56:13;;;;;;;63.40;24.80;;;;;;;-11.51;80.06;102695.41;105306;1258;69986;-49
2024/01/09 03:58:41;;;;;;;62.10;25.00;;;;;;;-11.49;79.93;102698.01;105357;1259;73954;-49
2024/01/09 04:01:10;;;;;;;59.20;24.90;;;;;;;-11.48;79.92;102698.63;105392;1260;81557;-49
2024/01/09 04:03:38;;;;;;;64.10;24.50;;;;;;;-11.49;80.15;102697.67;105308;1257;71879;-48
2024/01/09 04:06:06;;;;;;;58.90;25.80;;;;;;;-11.47;80.15;102697.80;105334;1260;69973;-48
2024/01/09 04:08:35;;;;;;;60.70;25.30;;;;;;;-11.47;80.07;102697.28;105292;1259;70383;-48
2024/01/09 04:11:04;;;;;;;67.30;25.30;;;;;;;-11.50;79.88;102700.45;105273;1257;73847;-49
2024/01/09 04:13:32;;;;;;;59.40;24.40;;;;;;;-11.52;80.11;102700.92;105316;1257;82147;-49
2024/01/09 04:16:00;;;;;;;55.70;23.60;;;;;;;-11.52;79.70;102704.79;105389;1258;72588;-49
2024/01/09 04:18:28;;;;;;;68.90;27.10;;;;;;;-11.52;79.95;102710.00;105287;1257;69829;-49
2024/01/09 04:20:57;;;;;;;68.80;26.60;;;;;;;-11.52;80.18;102713.75;105343;1259;70147;-48
2024/01/09 04:23:25;;;;;;;61.80;26.60;;;;;;;-11.51;80.08;102710.82;105285;1257;74319;-48
2024/01/09 04:25:53;;;;;;;56.40;24.70;;;;;;;-11.49;80.41;102707.62;105361;1257;81787;-51
2024/01/09 04:28:21;;;;;;;68.60;25.90;;;;;;;-11.47;80.51;102707.59;105374;1259;73037;-48
2024/01/09 04:30:49;;;;;;;56.00;25.50;;;;;;;-11.46;80.38;102707.19;105224;1259;70041;-49
2024/01/09 04:33:18;;;;;;;59.20;24.50;;;;;;;-11.43;80.36;102704.55;105232;1259;69963;-49
2024/01/09 04:35:46;;;;;;;58.00;25.40;;;;;;;-11.45;80.30;102706.25;105147;1259;73702;-48
2024/01/09 04:38:15;;;;;;;60.20;25.20;;;;;;;-11.50;80.01;102709.89;105299;1256;82194;-47
2024/01/09 04:40:43;;;;;;;64.90;24.80;;;;;;;-11.52;80.17;102708.02;105269;1257;71768;-49
2024/01/09 04:43:11;;;;;;;58.80;24.00;;;;;;;-11.53;79.88;102713.62;105299;1256;69950;-49
2024/01/09 04:45:39;;;;;;;65.00;24.80;;;;;;;-11.57;79.74;102721.92;105276;1257;69987;-48
2024/01/09 04:48:08;;;;;;;66.60;26.40;;;;;;;-11.60;79.80;102724.44;105343;1259;74359;-50
2024/01/09 04:50:36;;;;;;;60.70;26.40;;;;;;;-11.63;79.67;102725.55;105387;1260;81405;-48
2024/01/09 04:53:05;;;;;;;57.40;23.70;;;;;;;-11.63;79.87;102724.87;105243;1257;72236;-48
2024/01/09 04:55:33;;;;;;;67.20;26.10;;;;;;;-11.58;80.41;102723.45;105298;1259;69960;-50
2024/01/09 04:58:01;;;;;;;66.80;27.00;;;;;;;-11.53;80.50;102728.16;105139;1256;69953;-49
2024/01/09 05:00:29;;;;;;;72.80;27.30;;;;;;;-11.58;79.92;102728.59;105324;1257;73850;-48
2024/01/09 05:02:58;;;;;;;60.20;26.60;;;;;;;-11.63;79.83;102729.24;105283;1259;81439;-49
2024/01/09 05:05:26;;;;;;;59.80;24.20;;;;;;;-11.67;79.50;102733.78;105275;1257;72911;-48
2024/01/09 05:07:55;;;;;;;68.60;26.00;;;;;;;-11.71;79.71;102727.06;105277;1259;69941;-47
2024/01/09 05:10:24;;;;;;;59.60;25.50;;;;;;;-11.71;79.49;102729.43;105274;1259;69968;-49
2024/01/09 05:12:52;;;;;;;57.70;23.70;;;;;;;-11.73;79.38;102732.81;105312;1257;73665;-48
2024/01/09 05:15:20;;;;;;;67.90;26.50;;;;;;;-11.77;79.48;102731.40;105312;1259;81138;-48
2024/01/09 05:17:48;;;;;;;58.00;24.90;;;;;;;-11.80;79.09;102722.66;105331;1257;71626;-49
2024/01/09 05:20:16;;;;;;;54.30;24.30;;;;;;;-11.84;79.05;102729.57;105300;1259;70012;-49
2024/01/09 05:22:45;;;;;;;54.10;23.00;;;;;;;-11.87;79.11;102737.23;105330;1259;70012;-48
2024/01/09 05:25:13;;;;;;;62.50;23.50;;;;;;;-11.90;78.91;102730.56;105316;1257;74171;-48
2024/01/09 05:27:41;;;;;;;62.00;25.00;;;;;;;-11.94;78.68;102730.55;105347;1259;81802;-49
2024/01/09 05:30:10;;;;;;;61.10;23.10;;;;;;;-11.96;79.07;102735.92;105295;1259;72419;-49
2024/01/09 05:32:39;;;;;;;60.80;23.80;;;;;;;-11.98;79.10;102741.65;105318;1259;70065;-48
2024/01/09 05:35:09;;;;;;;56.50;23.80;;;;;;;-11.98;78.98;102750.44;105348;1257;69969;-48
2024/01/09 05:37:37;;;;;;;57.30;23.60;;;;;;;-12.01;78.71;102758.10;105304;1259;73319;-49
2024/01/09 05:40:07;;;;;;;55.20;23.50;;;;;;;-12.02;78.66;102765.36;105308;1259;81738;-48
2024/01/09 05:42:36;;;;;;;57.40;23.90;;;;;;;-12.04;78.65;102767.70;105315;1257;71481;-50
2024/01/09 05:45:05;;;;;;;63.60;25.80;;;;;;;-12.06;78.71;102770.06;105382;1260;70018;-49
2024/01/09 05:47:33;;;;;;;60.70;23.80;;;;;;;-12.07;78.83;102769.45;105374;1257;69862;-48
2024/01/09 05:50:01;;;;;;;65.10;26.20;;;;;;;-12.04;79.12;102771.74;105310;1257;73678;-48
2024/01/09 05:52:30;;;;;;;61.50;25.00;;;;;;;-12.00;79.57;102767.31;105202;1256;81395;-46
2024/01/09 05:54:58;;;;;;;62.80;26.20;;;;;;;-11.96;79.84;102767.27;105324;1257;70432;-48
2024/01/09 05:57:26;;;;;;;64.30;25.80;;;;;;;-11.94;80.03;102762.48;105276;1256;69975;-49
2024/01/09 05:59:54;;;;;;;56.60;23.80;;;;;;;-11.91;79.87;102764.79;105277;1256;70059;-48
2024/01/09 06:02:23;;;;;;;61.00;25.10;;;;;;;-11.88;79.89;102767.32;105255;1256;73791;-48
2024/01/09 06:04:52;;;;;;;56.50;23.90;;;;;;;-11.88;80.02;102769.83;105307;1257;81565;-48
2024/01/09 06:07:20;;;;;;;56.40;23.90;;;;;;;-11.89;79.47;102770.84;105295;1257;72197;-48
2024/01/09 06:09:48;;;;;;;58.00;23.60;;;;;;;-11.91;79.73;102769.64;105185;1259;69960;-49
2024/01/09 06:12:16;;;;;;;55.90;25.60;;;;;;;-11.94;79.54;102770.36;105292;1259;69996;-48
2024/01/09 06:14:44;;;;;;;65.50;25.20;;;;;;;-11.97;79.01;102770.49;105293;1259;74867;-51
2024/01/09 06:17:13;;;;;;;61.40;26.00;;;;;;;-12.00;79.25;102771.20;105278;1259;81334;-49
2024/01/09 06:19:41;;;;;;;61.60;25.20;;;;;;;-12.02;78.88;102769.16;105274;1257;70406;-48
2024/01/09 06:22:09;;;;;;;57.90;24.40;;;;;;;-12.04;79.02;102767.40;105431;1259;69876;-50
2024/01/09 06:24:38;;;;;;;62.40;24.10;;;;;;;-12.06;79.18;102770.89;105578;1259;69947;-47
2024/01/09 06:27:06;;;;;;;85.00;28.60;;;;;;;-12.09;78.67;102777.93;105343;1256;72520;-47
2024/01/09 06:29:34;;;;;;;107.70;35.20;;;;;;;-12.10;78.79;102774.08;105360;1259;81622;-47
2024/01/09 06:32:03;;;;;;;145.70;52.40;;;;;;;-12.11;79.16;102774.84;105307;1257;73857;-50
2024/01/09 06:34:31;;;;;;;135.60;47.30;;;;;;;-12.11;79.03;102778.19;105456;1256;69891;-49
2024/01/09 06:36:59;;;;;;;154.20;51.80;;;;;;;-12.16;78.73;102780.04;105389;1257;70012;-49
2024/01/09 06:39:27;;;;;;;164.00;58.40;;;;;;;-12.18;78.77;102780.45;105410;1257;74021;-47
2024/01/09 06:41:55;;;;;;;197.80;64.70;;;;;;;-12.21;78.66;102778.20;105336;1255;80949;-48
2024/01/09 06:44:24;;;;;;;186.50;62.30;;;;;;;-12.23;78.71;102780.83;105411;1257;71861;-46
2024/01/09 06:46:52;;;;;;;171.50;59.70;;;;;;;-12.26;78.86;102782.02;105526;1256;69987;-49
2024/01/09 06:49:20;;;;;;;177.00;62.80;;;;;;;-12.27;78.73;102780.98;105381;1257;69945;-46
2024/01/09 06:51:49;;;;;;;192.60;64.60;;;;;;;-12.27;78.65;102779.48;105390;1255;72835;-47
2024/01/09 06:54:17;;;;;;;178.90;63.30;;;;;;;-12.28;78.77;102783.23;105442;1259;80660;-48
2024/01/09 06:56:45;;;;;;;114.00;43.20;;;;;;;-12.27;79.06;102783.67;105341;1258;71676;-47
2024/01/09 06:59:13;;;;;;;98.90;35.30;;;;;;;-12.22;79.28;102780.10;105349;1259;69954;-47
2024/01/09 07:01:41;;;;;;;102.20;36.50;;;;;;;-12.16;79.29;102783.70;105460;1259;70675;-48
2024/01/09 07:04:10;;;;;;;100.00;36.00;;;;;;;-12.12;79.65;102784.69;105381;1259;73975;-48
2024/01/09 07:06:38;;;;;;;92.00;33.50;;;;;;;-12.10;79.32;102788.29;105491;1259;81357;-46
2024/01/09 07:09:07;;;;;;;111.80;35.40;;;;;;;-12.06;79.56;102784.91;105336;1256;71702;-45
2024/01/09 07:11:35;;;;;;;87.30;33.90;;;;;;;-12.07;79.09;102785.54;105373;1256;69947;-45
2024/01/09 07:14:03;;;;;;;90.30;34.30;;;;;;;-12.08;79.04;102782.70;105344;1259;69996;-45
2024/01/09 07:16:31;;;;;;;88.20;34.30;;;;;;;-12.11;78.83;102786.15;105335;1257;72215;-45
2024/01/09 07:19:01;;;;;;;82.50;31.60;;;;;;;-12.14;79.01;102786.94;105502;1256;82707;-45
2024/01/09 07:21:29;;;;;;;85.30;31.10;;;;;;;-12.15;78.82;102785.61;105442;1259;72195;-46
2024/01/09 07:23:57;;;;;;;77.20;29.70;;;;;;;-12.15;78.86;102786.84;105344;1259;70341;-45
2024/01/09 07:26:26;;;;;;;85.10;33.10;;;;;;;-12.13;78.96;102792.54;105412;1257;69928;-45
2024/01/09 07:28:54;;;;;;;81.40;31.40;;;;;;;-12.12;78.91;102788.04;105359;1256;74241;-48
2024/01/09 07:31:22;;;;;;;85.90;30.10;;;;;;;-12.13;79.10;102787.47;105313;1259;82007;-44
2024/01/09 07:33:51;;;;;;;78.80;31.50;;;;;;;-12.08;79.48;102783.86;105410;1256;71634;-46
2024/01/09 07:36:19;;;;;;;82.40;29.90;;;;;;;-12.02;79.65;102784.41;105287;1258;69937;-46
2024/01/09 07:38:47;;;;;;;76.50;28.50;;;;;;;-11.97;79.82;102778.70;105311;1259;69996;-47
2024/01/09 07:41:18;;;;;;;71.40;26.80;;;;;;;-11.91;80.12;102785.00;105377;1257;74086;-46
2024/01/09 07:43:46;;;;;;;76.70;28.80;;;;;;;-11.85;80.08;102788.20;105570;1256;82677;-47
2024/01/09 07:46:15;;;;;;;72.40;29.50;;;;;;;-11.79;80.21;102785.33;105400;1259;72863;-46
2024/01/09 07:48:43;;;;;;;69.80;27.80;;;;;;;-11.74;80.36;102784.33;105357;1255;69816;-46
2024/01/09 07:51:12;;;;;;;72.60;28.00;;;;;;;-11.63;80.82;102780.02;105432;1259;69958;-47
2024/01/09 07:53:40;;;;;;;66.10;28.20;;;;;;;-11.54;80.79;102780.36;105495;1257;74781;-48
2024/01/09 07:56:16;;;;;;;76.70;30.90;;;;;;;-11.45;80.76;102781.35;105344;1257;81412;-46
2024/01/09 07:58:45;;;;;;;70.10;30.00;;;;;;;-11.37;81.18;102780.23;105393;1257;72010;-47
2024/01/09 08:01:14;;;;;;;81.30;34.70;;;;;;;-11.29;81.28;102780.27;105590;1259;70646;-46
2024/01/09 08:03:42;;;;;;;106.10;40.30;;;;;;;-11.23;81.10;102778.95;105381;1257;70003;-47
2024/01/09 08:06:15;;;;;;;84.30;34.00;;;;;;;-11.17;81.38;102779.75;105452;1256;74517;-46
2024/01/09 08:08:44;;;;;;;89.60;36.50;;;;;;;-11.10;81.05;102777.55;105422;1259;81474;-46
2024/01/09 08:11:17;;;;;;;139.70;52.70;;;;;;;-11.03;81.12;102781.83;105150;1257;72158;-49
2024/01/09 08:13:47;;;;;;;110.20;45.20;;;;;;;-11.01;81.08;102783.09;105300;1259;69855;-46
2024/01/09 08:16:15;;;;;;;66.90;30.30;;;;;;;-10.95;81.05;102781.05;105211;1255;69940;-47
2024/01/09 08:18:44;;;;;;;75.50;30.40;;;;;;;-10.88;80.99;102779.84;105505;1257;74015;-47
2024/01/09 08:21:13;;;;;;;82.00;33.90;;;;;;;-10.81;81.34;102784.14;105390;1259;83524;-46
2024/01/09 08:23:41;;;;;;;73.90;31.90;;;;;;;-10.75;81.15;102781.95;105354;1257;72366;-47
2024/01/09 08:26:11;;;;;;;74.40;31.30;;;;;;;-10.68;81.25;102782.00;105620;1259;69935;-46
2024/01/09 08:28:39;;;;;;;74.30;31.50;;;;;;;-10.62;81.59;102780.54;105388;1257;69983;-46
2024/01/09 08:31:07;;;;;;;83.80;35.20;;;;;;;-10.55;81.58;102785.67;105430;1255;73661;-49
2024/01/09 08:33:36;;;;;;;72.80;31.40;;;;;;;-10.49;81.30;102787.56;105506;1259;81683;-47
2024/01/09 08:36:05;;;;;;;80.90;34.40;;;;;;;-10.42;81.60;102786.30;105298;1255;71970;-47
2024/01/09 08:38:33;;;;;;;71.90;30.30;;;;;;;-10.36;81.63;102783.44;105357;1257;70009;-49
2024/01/09 08:41:02;;;;;;;80.40;34.80;;;;;;;-10.31;81.71;102783.88;105178;1256;69919;-47
2024/01/09 08:43:31;;;;;;;77.90;34.50;;;;;;;-10.24;81.61;102788.17;105217;1256;74694;-46
2024/01/09 08:45:59;;;;;;;69.40;29.20;;;;;;;-10.17;81.76;102793.48;105267;1257;83986;-47
2024/01/09 08:48:27;;;;;;;86.70;36.00;;;;;;;-10.12;81.62;102794.77;105211;1256;71753;-47
2024/01/09 08:50:57;;;;;;;111.20;47.90;;;;;;;-10.08;81.53;102802.89;105212;1260;69939;-47
2024/01/09 08:53:28;;;;;;;99.40;42.30;;;;;;;-10.01;81.47;102802.98;105252;1257;70092;-47
2024/01/09 08:55:56;;;;;;;80.40;32.30;;;;;;;-9.94;81.56;102804.92;105185;1256;72124;-46
2024/01/09 08:58:25;;;;;;;72.50;30.20;;;;;;;-9.82;81.88;102800.34;105287;1256;81690;-47
2024/01/09 09:00:53;;;;;;;71.20;30.90;;;;;;;-9.67;81.88;102802.77;105209;1256;71785;-46
2024/01/09 09:03:21;;;;;;;95.20;36.70;;;;;;;-9.52;82.08;102806.58;105120;1257;69983;-50
2024/01/09 09:05:50;;;;;;;74.90;31.40;;;;;;;-9.36;81.90;102808.82;105263;1260;69857;-47
2024/01/09 09:08:20;;;;;;;76.90;31.40;;;;;;;-9.24;81.80;102808.51;105202;1257;75124;-46
2024/01/09 09:10:48;;;;;;;114.30;38.20;;;;;;;-9.11;81.54;102808.56;105183;1258;83345;-46
2024/01/09 09:13:17;;;;;;;90.70;34.00;;;;;;;-8.99;81.22;102809.05;105430;1257;72120;-46
2024/01/09 09:15:45;;;;;;;207.20;52.60;;;;;;;-8.87;81.13;102807.08;105172;1260;69971;-46
2024/01/09 09:18:13;;;;;;;356.00;81.90;;;;;;;-8.73;80.84;102808.39;105340;1260;70022;-46
2024/01/09 09:20:42;;;;;;;237.70;60.00;;;;;;;-8.61;80.77;102812.25;105290;1260;75049;-47
2024/01/09 09:23:11;;;;;;;77.80;32.10;;;;;;;-8.50;80.44;102804.95;105197;1257;82069;-46
2024/01/09 09:25:40;;;;;;;80.30;32.30;;;;;;;-8.40;80.16;102804.69;105167;1260;72341;-48
2024/01/09 09:28:08;;;;;;;80.80;32.00;;;;;;;-8.29;79.93;102802.64;105167;1261;69998;-48
2024/01/09 09:30:36;;;;;;;74.20;30.10;;;;;;;-8.16;80.08;102803.62;105332;1260;70091;-48
2024/01/09 09:33:05;;;;;;;65.10;29.80;;;;;;;-8.02;80.17;102805.58;105166;1260;74079;-48
2024/01/09 09:35:35;;;;;;;77.20;31.00;;;;;;;-7.92;79.75;102803.13;105394;1260;81590;-54
2024/01/09 09:38:04;;;;;;;64.10;28.80;;;;;;;-7.77;79.75;102803.59;105183;1261;72650;-48
2024/01/09 09:40:32;;;;;;;63.70;27.70;;;;;;;-7.62;79.73;102795.00;105240;1260;69951;-48
2024/01/09 09:43:02;;;;;;;61.90;28.50;;;;;;;-7.50;79.83;102799.14;105276;1256;70012;-51
2024/01/09 09:45:31;;;;;;;66.80;29.80;;;;;;;-7.35;79.56;102800.22;105168;1256;74865;-51
2024/01/09 09:48:00;;;;;;;65.50;29.70;;;;;;;-7.24;79.10;102803.66;105210;1256;83770;-49
2024/01/09 09:50:30;;;;;;;60.10;27.90;;;;;;;-7.14;79.01;102799.10;105261;1256;73078;-48
2024/01/09 09:52:59;;;;;;;59.40;28.30;;;;;;;-7.07;78.48;102799.13;105316;1256;70076;-48
2024/01/09 09:55:27;;;;;;;62.70;27.60;;;;;;;-7.01;78.71;102800.04;105287;1256;69945;-48
2024/01/09 09:57:57;;;;;;;60.40;29.10;;;;;;;-6.94;78.47;102795.27;105286;1256;73792;-47
2024/01/09 10:00:25;;;;;;;56.50;26.70;;;;;;;-6.80;78.73;102791.55;105171;1257;81508;-53
2024/01/09 10:02:55;;;;;;;58.00;26.70;;;;;;;-6.59;78.97;102789.44;105198;1257;72006;-50
2024/01/09 10:05:25;;;;;;;57.20;27.50;;;;;;;-6.34;78.80;102789.18;105236;1256;69866;-51
2024/01/09 10:07:54;;;;;;;58.70;28.30;;;;;;;-6.31;77.69;102790.07;105252;1256;69848;-48
2024/01/09 10:10:23;;;;;;;51.20;26.40;;;;;;;-6.34;77.01;102786.80;105313;1260;74049;-47
2024/01/09 10:12:56;;;;;;;56.50;26.90;;;;;;;-6.26;77.23;102782.59;105336;1260;81914;-47
2024/01/09 10:15:25;;;;;;;54.60;27.10;;;;;;;-6.13;76.96;102781.09;105396;1256;71446;-47
2024/01/09 10:17:53;;;;;;;55.90;27.60;;;;;;;-6.05;77.05;102778.06;105194;1260;70369;-48
2024/01/09 10:20:21;;;;;;;59.80;27.50;;;;;;;-6.08;76.40;102772.05;105325;1260;69960;-48
2024/01/09 10:22:53;;;;;;;54.00;26.20;;;;;;;-6.04;76.40;102767.76;105148;1256;73758;-49
2024/01/09 10:25:22;;;;;;;59.70;29.10;;;;;;;-5.95;76.07;102769.85;105909;1256;81745;-52
2024/01/09 10:27:50;;;;;;;61.40;27.80;;;;;;;-5.83;76.20;102761.81;105330;1256;70097;-48
2024/01/09 10:30:19;;;;;;;62.70;30.30;;;;;;;-5.62;76.24;102762.70;105370;1261;69938;-48
2024/01/09 10:32:50;;;;;;;57.10;28.00;;;;;;;-5.50;75.94;102760.45;105252;1261;70003;-48
2024/01/09 10:35:20;;;;;;;58.30;27.40;;;;;;;-5.39;76.09;102757.77;105222;1257;73688;-48
2024/01/09 10:37:52;;;;;;;52.20;27.70;;;;;;;-5.31;75.86;102759.28;105315;1261;81495;-48
2024/01/09 10:40:27;;;;;;;95.00;45.00;;;;;;;-5.22;75.81;102754.11;105192;1261;71569;-50
2024/01/09 10:42:55;;;;;;;62.00;29.70;;;;;;;-5.05;75.92;102753.49;104999;1257;216329;-52
2024/01/09 10:45:24;;;;;;;56.60;28.10;;;;;;;-4.89;75.82;102754.66;105330;1260;69881;-54
2024/01/09 10:47:53;;;;;;;57.30;27.10;;;;;;;-4.89;75.21;102751.05;105418;1260;75926;-50
2024/01/09 10:50:23;;;;;;;62.40;28.60;;;;;;;-4.83;75.19;102752.36;105301;1260;81498;-48
2024/01/09 10:52:52;;;;;;;56.90;29.10;;;;;;;-4.66;75.07;102749.64;105413;1257;71813;-51
2024/01/09 10:55:23;;;;;;;56.00;28.40;;;;;;;-4.55;74.82;102750.34;105338;1260;69794;-56
2024/01/09 10:57:51;;;;;;;59.60;27.90;;;;;;;-4.43;74.52;102750.58;105258;1259;69941;-50
2024/01/09 11:00:21;;;;;;;53.10;26.70;;;;;;;-4.31;74.48;102745.64;105282;1256;74710;-55